Time;durP1;ratioP1;P1;durP2;ratioP2;P2;SDS_P1;SDS_P2;PMS_P1;PMS_P2;Temp;Humidity;BMP_temperature;BMP_pressure;BME280_temperature;BME280_humidity;BME280_pressure;Samples;Min_cycle;Max_cycle;Signal;HPM_P1;HPM_P2
2021/12/12 00:01:32;;;;;;;7.43;6.77;;;4.60;62.60;;;;;;4980588;28;20456;-85
2021/12/12 00:04:10;;;;;;;7.20;6.60;;;4.60;62.30;;;;;;4982341;28;21243;-85
2021/12/12 00:06:40;;;;;;;7.60;6.77;;;4.50;62.30;;;;;;4951283;28;20548;-85
2021/12/12 00:09:12;;;;;;;7.27;6.67;;;4.60;63.20;;;;;;4962157;28;20457;-85
2021/12/12 00:11:38;;;;;;;7.90;7.20;;;4.50;62.10;;;;;;4958914;28;20988;-85
2021/12/12 00:14:06;;;;;;;7.30;6.70;;;4.60;63.70;;;;;;4964044;28;20462;-86
2021/12/12 00:16:32;;;;;;;9.00;7.17;;;4.60;61.50;;;;;;4965321;28;20584;-86
2021/12/12 00:18:58;;;;;;;7.47;6.77;;;4.60;61.20;;;;;;4965263;28;20450;-86
2021/12/12 00:21:27;;;;;;;8.00;7.20;;;4.50;60.90;;;;;;4964773;28;21012;-87
2021/12/12 00:23:54;;;;;;;8.47;7.70;;;4.60;62.20;;;;;;4969661;28;20426;-87
2021/12/12 00:26:22;;;;;;;8.57;7.77;;;4.50;61.80;;;;;;4966793;28;20421;-86
2021/12/12 00:28:48;;;;;;;8.43;7.67;;;4.50;62.60;;;;;;4961839;28;21217;-85
2021/12/12 00:31:16;;;;;;;7.73;6.73;;;4.40;62.10;;;;;;4959336;28;20812;-85
2021/12/12 00:33:47;;;;;;;8.00;7.20;;;4.50;62.20;;;;;;4959581;28;20454;-85
2021/12/12 00:36:17;;;;;;;6.47;5.97;;;4.40;61.90;;;;;;4959371;28;20986;-86
2021/12/12 00:38:48;;;;;;;7.27;6.57;;;4.40;62.10;;;;;;4964059;28;20461;-85
2021/12/12 00:41:19;;;;;;;7.53;6.83;;;4.50;61.80;;;;;;4966284;28;20528;-86
2021/12/12 00:43:50;;;;;;;7.40;6.80;;;4.50;61.30;;;;;;4970280;28;20445;-86
2021/12/12 00:46:18;;;;;;;7.63;7.03;;;4.50;60.50;;;;;;4967676;28;21002;-86
2021/12/12 00:48:45;;;;;;;7.27;6.67;;;4.50;60.60;;;;;;4969546;28;20450;-86
2021/12/12 00:51:14;;;;;;;7.40;6.80;;;4.50;61.00;;;;;;4971137;28;20446;-86
2021/12/12 00:53:41;;;;;;;7.27;6.67;;;4.50;60.70;;;;;;4973558;28;20855;-87
2021/12/12 00:56:08;;;;;;;9.00;6.10;;;4.50;61.20;;;;;;4968675;28;20445;-85
2021/12/12 00:58:34;;;;;;;6.60;6.10;;;4.60;61.00;;;;;;4968527;28;20450;-86
2021/12/12 01:01:12;;;;;;;6.80;6.20;;;4.60;60.80;;;;;;4969893;28;20450;-87
2021/12/12 01:03:43;;;;;;;7.63;7.00;;;4.50;61.30;;;;;;4968162;28;20456;-87
2021/12/12 01:06:11;;;;;;;7.07;6.47;;;4.50;61.20;;;;;;4965750;28;20536;-88
2021/12/12 01:08:38;;;;;;;7.95;7.25;;;4.50;61.20;;;;;;4965516;28;20936;-86
2021/12/12 01:11:35;;;;;;;7.03;6.37;;;4.50;60.30;;;;;;4963418;28;20222;-86
2021/12/12 01:14:04;;;;;;;11.93;7.13;;;4.50;60.50;;;;;;4960845;28;20461;-86
2021/12/12 01:16:39;;;;;;;7.43;6.70;;;4.50;60.60;;;;;;4963106;28;20458;-85
2021/12/12 01:19:12;;;;;;;7.10;6.10;;;4.50;60.80;;;;;;4960497;28;20861;-86
2021/12/12 01:21:43;;;;;;;6.97;6.37;;;4.40;60.10;;;;;;4962785;28;20453;-86
2021/12/12 01:24:14;;;;;;;7.50;6.80;;;4.60;60.80;;;;;;4962391;28;20460;-86
2021/12/12 01:26:41;;;;;;;7.60;7.00;;;4.50;61.20;;;;;;4965295;28;20549;-85
2021/12/12 01:29:08;;;;;;;7.67;6.90;;;4.50;61.00;;;;;;4967072;28;20524;-86
2021/12/12 01:31:39;;;;;;;7.40;6.70;;;4.50;61.60;;;;;;4965509;28;20445;-86
2021/12/12 01:34:11;;;;;;;7.90;7.20;;;4.50;61.00;;;;;;4965527;28;20461;-86
2021/12/12 01:36:48;;;;;;;7.17;6.47;;;4.50;60.60;;;;;;4967663;28;20461;-87
2021/12/12 01:39:17;;;;;;;8.17;6.40;;;4.50;60.80;;;;;;4964008;28;20540;-87
2021/12/12 01:42:01;;;;;;;7.37;6.70;;;4.50;60.60;;;;;;4964620;28;20465;-86
2021/12/12 01:44:44;;;;;;;8.07;6.97;;;4.50;61.00;;;;;;4982025;28;20495;-87
2021/12/12 01:47:12;;;;;;;7.10;6.50;;;4.50;60.70;;;;;;4985990;28;20456;-86
2021/12/12 01:49:42;;;;;;;7.80;7.10;;;4.50;60.20;;;;;;4986772;28;20448;-86
2021/12/12 01:52:11;;;;;;;7.97;7.23;;;4.50;60.60;;;;;;4983295;28;20449;-86
2021/12/12 01:54:45;;;;;;;8.50;6.57;;;4.50;60.30;;;;;;4980555;28;20804;-86
2021/12/12 01:57:19;;;;;;;7.63;6.93;;;4.50;60.90;;;;;;4977872;28;20463;-86
2021/12/12 01:59:47;;;;;;;7.53;6.83;;;4.50;60.80;;;;;;4977208;28;20449;-87
2021/12/12 02:02:23;;;;;;;6.83;6.13;;;4.50;59.20;;;;;;4982229;28;20461;-86
2021/12/12 02:04:53;;;;;;;9.00;6.93;;;4.50;59.80;;;;;;4977272;28;20523;-86
2021/12/12 02:07:27;;;;;;;7.33;6.60;;;4.50;59.40;;;;;;4980404;28;20855;-85
2021/12/12 02:09:53;;;;;;;7.80;7.10;;;4.50;59.40;;;;;;4977616;28;20468;-85
2021/12/12 02:12:22;;;;;;;7.53;6.83;;;4.50;60.20;;;;;;4982729;28;20512;-86
2021/12/12 02:14:48;;;;;;;7.20;6.60;;;4.50;59.80;;;;;;4976234;28;21560;-84
2021/12/12 02:17:40;;;;;;;7.23;6.53;;;4.40;59.30;;;;;;4979536;28;20456;-86
2021/12/12 02:20:19;;;;;;;6.50;5.90;;;4.40;59.40;;;;;;4978291;28;20457;-85
2021/12/12 02:36:19;;;;;;;5.90;5.40;;;4.40;57.20;;;;;;4987035;28;20588;-84
2021/12/12 02:38:48;;;;;;;7.17;6.47;;;4.40;58.50;;;;;;4977805;28;20610;-85
2021/12/12 02:41:16;;;;;;;7.33;5.20;;;4.50;58.70;;;;;;4978495;28;20459;-86
2021/12/12 02:43:46;;;;;;;8.30;5.70;;;4.40;57.40;;;;;;4976920;28;20837;-86
2021/12/12 02:46:16;;;;;;;8.07;7.27;;;4.40;57.90;;;;;;4977245;28;20437;-86
2021/12/12 02:48:44;;;;;;;6.07;5.57;;;4.40;57.70;;;;;;4978037;28;20448;-86
2021/12/12 02:51:13;;;;;;;6.30;5.80;;;4.40;57.60;;;;;;4984253;28;20826;-87
2021/12/12 02:53:44;;;;;;;8.90;5.90;;;4.40;57.80;;;;;;4981653;28;20511;-87
2021/12/12 02:56:14;;;;;;;10.33;5.80;;;4.40;58.20;;;;;;4983653;28;20449;-87
2021/12/12 02:58:41;;;;;;;6.27;5.67;;;4.40;57.20;;;;;;4982362;28;20445;-87
2021/12/12 03:01:22;;;;;;;5.70;5.30;;;4.40;57.20;;;;;;4982397;28;20473;-87
2021/12/12 03:03:49;;;;;;;5.97;4.57;;;4.40;56.50;;;;;;4959558;28;20452;-85
2021/12/12 03:06:19;;;;;;;6.27;5.27;;;4.30;55.80;;;;;;4956700;28;20550;-86
2021/12/12 03:08:48;;;;;;;5.23;4.70;;;4.30;57.20;;;;;;4975088;28;20457;-85
2021/12/12 03:11:14;;;;;;;4.90;4.40;;;4.30;57.20;;;;;;4976159;28;21023;-86
2021/12/12 03:13:40;;;;;;;5.77;5.30;;;4.40;57.30;;;;;;4976335;28;20464;-86
2021/12/12 03:16:07;;;;;;;5.07;4.67;;;4.30;57.20;;;;;;4978983;28;20544;-86
2021/12/12 03:18:40;;;;;;;5.33;4.83;;;4.20;57.10;;;;;;4975875;28;20543;-86
2021/12/12 03:21:16;;;;;;;5.13;4.63;;;4.30;57.00;;;;;;4976718;28;20953;-85
2021/12/12 03:23:48;;;;;;;5.60;5.20;;;4.30;57.10;;;;;;4957065;28;20465;-85
2021/12/12 03:26:15;;;;;;;4.80;4.40;;;4.20;57.10;;;;;;4957698;28;20458;-86
2021/12/12 03:28:46;;;;;;;5.63;5.13;;;4.20;56.60;;;;;;4957952;28;20456;-85
2021/12/12 03:31:17;;;;;;;5.80;5.30;;;4.30;56.80;;;;;;4952320;28;20943;-85
2021/12/12 03:33:43;;;;;;;4.40;4.10;;;4.20;55.70;;;;;;4938129;28;20467;-87
2021/12/12 03:36:12;;;;;;;5.63;5.03;;;4.10;55.80;;;;;;4937220;28;20491;-86
2021/12/12 03:38:46;;;;;;;5.90;5.40;;;4.10;57.00;;;;;;4937699;28;20510;-85
2021/12/12 03:41:14;;;;;;;5.90;5.30;;;4.00;57.40;;;;;;4935233;28;20470;-86
2021/12/12 03:43:41;;;;;;;8.00;4.80;;;4.00;57.50;;;;;;4921809;29;20502;-86
2021/12/12 03:46:10;;;;;;;4.97;4.47;;;4.00;57.10;;;;;;4935909;28;20454;-85
2021/12/12 03:48:39;;;;;;;6.97;5.00;;;3.90;57.40;;;;;;4937229;28;20466;-85
2021/12/12 03:51:07;;;;;;;5.70;5.30;;;4.00;57.00;;;;;;4937645;28;20454;-85
2021/12/12 03:53:34;;;;;;;5.07;4.60;;;4.00;56.90;;;;;;4938807;28;20979;-86
2021/12/12 03:56:00;;;;;;;6.30;5.13;;;3.90;57.50;;;;;;4935464;28;20451;-86
2021/12/12 03:58:26;;;;;;;7.07;5.43;;;3.90;58.50;;;;;;4937988;28;20515;-85
2021/12/12 04:00:58;;;;;;;5.17;4.67;;;3.80;58.00;;;;;;4937144;28;20454;-87
2021/12/12 04:03:23;;;;;;;5.80;5.30;;;3.80;59.00;;;;;;4973678;28;20942;-86
2021/12/12 04:06:00;;;;;;;4.87;4.30;;;3.80;60.10;;;;;;4959644;28;20460;-88
2021/12/12 04:08:32;;;;;;;6.20;5.70;;;3.80;60.30;;;;;;4976239;28;20675;-86
2021/12/12 04:10:59;;;;;;;5.00;4.57;;;3.70;60.20;;;;;;4950225;28;20516;-86
2021/12/12 04:13:25;;;;;;;5.43;4.93;;;3.70;60.50;;;;;;4957681;28;20473;-87
2021/12/12 04:15:53;;;;;;;6.10;4.33;;;3.70;61.40;;;;;;4956240;28;20461;-87
2021/12/12 04:18:29;;;;;;;7.30;5.57;;;3.60;61.40;;;;;;4959788;28;20454;-84
2021/12/12 04:21:05;;;;;;;5.27;4.77;;;3.50;61.50;;;;;;4959412;28;22389;-84
2021/12/12 04:23:31;;;;;;;6.40;5.43;;;3.50;61.90;;;;;;4960272;28;20457;-85
2021/12/12 04:26:13;;;;;;;5.37;4.90;;;3.50;62.20;;;;;;4960059;28;20476;-85
2021/12/12 04:28:40;;;;;;;5.00;4.50;;;3.40;62.30;;;;;;4960224;28;20815;-85
2021/12/12 04:31:19;;;;;;;5.60;5.20;;;3.40;61.60;;;;;;4959718;28;21110;-86
2021/12/12 04:33:45;;;;;;;5.80;5.30;;;3.30;61.40;;;;;;4963528;28;21295;-84
2021/12/12 04:36:11;;;;;;;5.00;4.60;;;3.30;62.40;;;;;;4964412;28;20525;-86
2021/12/12 04:38:37;;;;;;;8.03;5.77;;;3.10;62.10;;;;;;4962140;28;20721;-87
2021/12/12 04:41:02;;;;;;;7.80;5.10;;;3.10;62.50;;;;;;4939286;28;20486;-84
2021/12/12 04:43:41;;;;;;;5.63;4.90;;;3.00;62.10;;;;;;4684404;23;20927;-85
2021/12/12 04:46:11;;;;;;;5.20;4.70;;;3.10;62.20;;;;;;4945657;28;20675;-85
2021/12/12 04:52:00;;;;;;;5.60;4.93;;;3.00;62.30;;;;;;4943341;28;20757;-85
2021/12/12 04:55:12;;;;;;;7.83;5.57;;;2.90;62.10;;;;;;4958135;28;21150;-85
2021/12/12 04:57:53;;;;;;;6.13;5.73;;;3.00;63.50;;;;;;4942787;28;20898;-85
2021/12/12 05:00:25;;;;;;;5.87;5.27;;;3.00;61.50;;;;;;4960463;28;20867;-85
2021/12/12 05:02:57;;;;;;;6.20;5.70;;;3.00;61.80;;;;;;4964217;28;20451;-85
2021/12/12 05:05:28;;;;;;;6.00;5.50;;;2.90;61.70;;;;;;4965039;28;20455;-85
2021/12/12 05:08:03;;;;;;;6.50;5.90;;;3.00;61.70;;;;;;4945923;28;20466;-85
2021/12/12 05:10:44;;;;;;;6.18;5.20;;;3.00;62.30;;;;;;4947691;28;20426;-84
2021/12/12 05:13:19;;;;;;;5.33;4.80;;;2.90;62.10;;;;;;4928554;28;20228;-84
2021/12/12 05:15:48;;;;;;;5.00;4.60;;;3.00;62.80;;;;;;4928564;28;20831;-86
2021/12/12 05:18:27;;;;;;;7.43;5.77;;;3.00;62.20;;;;;;4945596;28;20455;-86
2021/12/12 05:21:02;;;;;;;6.40;5.40;;;3.00;60.40;;;;;;4940913;28;20444;-86
2021/12/12 05:23:31;;;;;;;5.33;4.93;;;3.00;59.80;;;;;;4925030;29;20518;-85
2021/12/12 05:26:00;;;;;;;4.77;4.27;;;3.10;59.40;;;;;;4944462;28;21268;-85
2021/12/12 05:28:48;;;;;;;6.13;5.20;;;3.10;58.50;;;;;;4928991;28;20456;-86
2021/12/12 05:31:16;;;;;;;4.83;4.30;;;3.10;57.60;;;;;;4947076;28;20526;-85
2021/12/12 05:33:42;;;;;;;4.80;4.10;;;3.20;57.50;;;;;;4932725;28;21068;-85
2021/12/12 05:36:10;;;;;;;4.60;4.20;;;3.20;57.50;;;;;;4947756;28;20486;-85
2021/12/12 05:38:37;;;;;;;5.70;5.20;;;3.20;57.00;;;;;;4950983;28;20975;-84
2021/12/12 05:41:04;;;;;;;5.90;3.77;;;3.20;56.30;;;;;;4948361;28;20439;-85
2021/12/12 05:43:30;;;;;;;3.50;3.20;;;3.30;57.40;;;;;;4948399;28;20494;-85
2021/12/12 05:45:56;;;;;;;3.70;3.40;;;3.30;57.60;;;;;;4931296;28;20502;-84
2021/12/12 05:48:22;;;;;;;5.07;4.60;;;3.30;56.40;;;;;;4945602;28;20518;-85
2021/12/12 05:50:50;;;;;;;6.17;4.40;;;3.30;56.40;;;;;;4943731;28;20594;-85
2021/12/12 05:53:17;;;;;;;5.80;4.40;;;3.30;56.40;;;;;;4941256;28;20231;-84
2021/12/12 05:55:45;;;;;;;4.37;4.00;;;3.30;56.90;;;;;;4942221;28;20452;-86
2021/12/12 05:58:14;;;;;;;3.97;3.67;;;3.30;56.40;;;;;;4926108;28;20478;-85
2021/12/12 06:00:44;;;;;;;4.50;4.10;;;3.30;56.40;;;;;;4943943;28;20936;-85
2021/12/12 06:03:13;;;;;;;4.97;4.63;;;3.20;56.30;;;;;;4943284;28;20526;-85
2021/12/12 06:05:39;;;;;;;4.87;4.50;;;3.20;56.30;;;;;;4943071;28;20887;-85
2021/12/12 06:08:05;;;;;;;4.97;4.47;;;3.30;56.90;;;;;;4940773;28;20984;-85
2021/12/12 06:10:33;;;;;;;5.70;5.20;;;3.20;55.50;;;;;;4927791;28;20523;-86
2021/12/12 06:13:00;;;;;;;5.00;4.50;;;3.20;56.80;;;;;;4925224;28;20538;-86
2021/12/12 06:15:29;;;;;;;4.90;4.40;;;3.20;56.40;;;;;;4943298;28;20451;-88
2021/12/12 06:17:55;;;;;;;5.30;4.77;;;3.30;57.60;;;;;;4927915;28;20460;-86
2021/12/12 06:20:22;;;;;;;5.93;4.70;;;3.30;57.20;;;;;;4928576;28;20432;-86
2021/12/12 06:22:48;;;;;;;4.17;3.87;;;3.30;57.10;;;;;;4940770;28;20440;-86
2021/12/12 06:25:22;;;;;;;5.70;4.90;;;3.30;56.30;;;;;;4940018;28;20442;-86
2021/12/12 06:27:48;;;;;;;5.53;5.03;;;3.30;56.40;;;;;;4940313;28;21032;-85
2021/12/12 06:30:17;;;;;;;5.30;4.80;;;3.20;56.20;;;;;;4925450;28;20539;-85
2021/12/12 06:32:44;;;;;;;5.70;5.17;;;3.20;57.30;;;;;;4919892;28;20455;-85
2021/12/12 06:35:10;;;;;;;5.10;4.70;;;3.20;57.40;;;;;;4924813;28;20570;-85
2021/12/12 06:37:37;;;;;;;6.27;5.77;;;3.10;58.20;;;;;;4939318;28;20976;-84
2021/12/12 06:40:08;;;;;;;7.07;6.43;;;3.30;58.00;;;;;;4925341;28;20538;-84
2021/12/12 06:42:34;;;;;;;6.70;6.20;;;3.20;57.60;;;;;;4938051;28;20463;-84
2021/12/12 06:45:00;;;;;;;6.57;5.70;;;3.10;57.40;;;;;;4938742;28;20442;-84
2021/12/12 06:47:27;;;;;;;5.20;4.80;;;3.10;58.20;;;;;;4923844;29;20235;-84
2021/12/12 06:49:52;;;;;;;6.50;6.03;;;3.20;58.40;;;;;;4922528;28;20489;-84
2021/12/12 06:52:19;;;;;;;6.53;6.03;;;3.20;58.50;;;;;;4923598;28;20475;-85
2021/12/12 06:54:46;;;;;;;6.73;6.13;;;3.10;59.00;;;;;;4937449;28;20622;-85
2021/12/12 06:57:14;;;;;;;6.20;5.70;;;3.10;58.50;;;;;;4923982;28;20539;-84
2021/12/12 06:59:42;;;;;;;6.33;5.83;;;3.00;58.90;;;;;;4937691;28;21200;-83
2021/12/12 07:02:09;;;;;;;5.80;5.30;;;3.00;59.40;;;;;;4939066;28;20495;-85
2021/12/12 07:04:37;;;;;;;6.60;6.00;;;2.90;59.80;;;;;;4922866;28;20460;-85
2021/12/12 07:07:05;;;;;;;6.20;5.70;;;2.90;59.90;;;;;;4923759;28;20471;-85
2021/12/12 07:09:32;;;;;;;6.17;5.67;;;2.90;59.10;;;;;;4938483;28;23277;-84
2021/12/12 07:12:02;;;;;;;6.07;5.57;;;2.90;59.70;;;;;;4940785;28;20466;-84
2021/12/12 07:14:28;;;;;;;6.37;5.50;;;2.90;61.50;;;;;;4925464;28;20476;-86
2021/12/12 07:16:55;;;;;;;6.17;5.70;;;2.90;60.60;;;;;;4932570;28;20468;-84
2021/12/12 07:19:22;;;;;;;7.73;6.93;;;3.00;60.80;;;;;;4923169;28;20456;-84
2021/12/12 07:21:49;;;;;;;6.57;5.97;;;2.90;60.40;;;;;;4941314;28;20799;-83
2021/12/12 07:24:16;;;;;;;5.10;4.80;;;2.80;60.10;;;;;;4938825;28;20460;-86
2021/12/12 07:26:48;;;;;;;5.50;4.93;;;2.90;59.90;;;;;;4940129;28;20498;-84
2021/12/12 07:29:14;;;;;;;6.03;5.50;;;2.80;59.90;;;;;;4922444;28;20471;-85
2021/12/12 07:31:42;;;;;;;5.87;5.27;;;2.90;60.10;;;;;;4936140;28;21018;-86
2021/12/12 07:34:13;;;;;;;5.90;5.43;;;2.90;60.50;;;;;;4943038;28;20227;-87
2021/12/12 07:36:54;;;;;;;6.20;5.60;;;3.30;61.60;;;;;;4947413;28;20454;-84
2021/12/12 07:39:22;;;;;;;5.90;5.40;;;3.00;59.60;;;;;;4947696;28;20438;-83
2021/12/12 07:41:50;;;;;;;6.10;5.60;;;3.00;59.20;;;;;;4955148;28;20419;-83
2021/12/12 07:44:20;;;;;;;6.27;5.77;;;3.00;58.70;;;;;;4945453;28;20468;-84
2021/12/12 07:46:48;;;;;;;5.70;5.20;;;2.90;59.20;;;;;;4943323;28;20807;-83
2021/12/12 07:49:14;;;;;;;5.30;4.90;;;2.90;58.50;;;;;;4944188;28;20455;-83
2021/12/12 07:51:43;;;;;;;5.77;5.23;;;2.80;58.60;;;;;;4948972;28;20989;-83
2021/12/12 07:54:09;;;;;;;6.70;5.90;;;3.00;59.90;;;;;;4945108;28;20467;-82
2021/12/12 07:56:39;;;;;;;5.93;5.37;;;3.20;59.10;;;;;;4944053;28;20842;-84
2021/12/12 07:59:07;;;;;;;6.93;6.23;;;3.30;58.50;;;;;;4935212;28;20482;-81
2021/12/12 08:01:34;;;;;;;5.00;4.60;;;3.40;58.00;;;;;;4941579;28;20482;-82
2021/12/12 08:04:03;;;;;;;5.07;4.67;;;3.40;56.50;;;;;;4941972;28;20462;-82
2021/12/12 08:06:31;;;;;;;5.73;5.13;;;3.50;56.50;;;;;;4943050;28;20454;-81
2021/12/12 08:08:58;;;;;;;5.50;5.00;;;3.60;56.60;;;;;;4942620;28;20471;-84
2021/12/12 08:11:28;;;;;;;5.97;5.50;;;3.60;56.20;;;;;;4943854;28;20459;-83
2021/12/12 08:13:55;;;;;;;5.20;4.80;;;3.70;55.40;;;;;;4942753;28;20470;-84
2021/12/12 08:16:22;;;;;;;4.60;4.30;;;3.70;55.80;;;;;;4938802;28;21026;-85
2021/12/12 08:18:48;;;;;;;5.53;5.00;;;3.70;54.80;;;;;;4940599;28;20469;-84
2021/12/12 08:21:15;;;;;;;5.70;5.20;;;3.80;55.60;;;;;;4942636;28;20527;-84
2021/12/12 08:23:42;;;;;;;6.27;4.47;;;3.90;54.70;;;;;;4942746;28;20482;-84
2021/12/12 08:26:10;;;;;;;4.17;3.87;;;3.90;54.50;;;;;;4941899;28;21014;-84
2021/12/12 08:28:36;;;;;;;4.17;3.87;;;4.00;53.70;;;;;;4941351;28;20863;-85
2021/12/12 08:31:04;;;;;;;4.47;4.07;;;4.00;53.10;;;;;;4940350;28;20462;-84
2021/12/12 08:33:30;;;;;;;3.83;3.60;;;4.00;52.90;;;;;;4939821;28;20525;-83
2021/12/12 08:35:56;;;;;;;4.30;3.90;;;3.90;52.10;;;;;;4939694;28;20489;-78
2021/12/12 08:38:23;;;;;;;3.50;3.30;;;4.00;53.30;;;;;;4936666;28;20467;-81
2021/12/12 08:40:54;;;;;;;3.80;3.50;;;4.00;51.90;;;;;;4926089;28;20448;-81
2021/12/12 08:43:22;;;;;;;3.80;3.50;;;4.10;52.20;;;;;;4929621;28;20455;-80
2021/12/12 08:45:55;;;;;;;4.17;3.80;;;4.20;53.50;;;;;;4933375;28;20452;-85
2021/12/12 08:48:25;;;;;;;3.70;3.40;;;4.20;52.60;;;;;;4920308;28;20443;-85
2021/12/12 08:50:53;;;;;;;3.27;3.00;;;4.20;52.40;;;;;;4920776;29;20932;-84
2021/12/12 08:53:20;;;;;;;4.40;4.00;;;4.20;51.70;;;;;;4920485;28;20452;-86
2021/12/12 08:55:49;;;;;;;3.83;3.53;;;4.30;52.50;;;;;;4924261;28;20452;-85
2021/12/12 08:58:23;;;;;;;4.07;3.77;;;4.30;51.70;;;;;;4935398;28;20457;-85
2021/12/12 09:01:11;;;;;;;3.90;3.60;;;4.30;53.10;;;;;;4939364;28;20514;-84
2021/12/12 09:03:49;;;;;;;3.77;3.57;;;4.30;52.50;;;;;;4924931;28;20459;-85
2021/12/12 09:06:16;;;;;;;3.53;3.23;;;4.30;52.00;;;;;;4924200;28;20452;-84
2021/12/12 09:08:58;;;;;;;3.50;3.20;;;4.40;51.40;;;;;;4939645;28;20506;-84
2021/12/12 09:11:31;;;;;;;3.77;3.33;;;4.30;51.80;;;;;;4917297;28;20510;-84
2021/12/12 09:14:16;;;;;;;3.50;3.30;;;4.30;52.00;;;;;;4923703;28;20487;-84
2021/12/12 09:16:54;;;;;;;3.33;3.10;;;4.30;51.70;;;;;;4923621;28;20531;-85
2021/12/12 09:19:26;;;;;;;3.30;3.00;;;4.40;53.50;;;;;;4907179;29;20452;-83
2021/12/12 09:22:02;;;;;;;3.73;3.07;;;4.50;52.10;;;;;;4904666;29;20448;-83
2021/12/12 09:24:30;;;;;;;3.10;2.90;;;4.40;51.30;;;;;;4904307;29;20464;-85
2021/12/12 09:27:02;;;;;;;3.20;3.00;;;4.40;50.20;;;;;;4918536;28;20452;-84
2021/12/12 09:29:39;;;;;;;3.57;3.27;;;4.40;51.80;;;;;;4922734;28;20462;-85
2021/12/12 09:32:13;;;;;;;2.70;2.50;;;4.50;51.60;;;;;;4924438;28;20451;-80
2021/12/12 09:34:56;;;;;;;3.40;2.73;;;4.50;50.10;;;;;;4942963;28;20461;-80
2021/12/12 09:38:03;;;;;;;2.83;2.63;;;4.50;49.40;;;;;;4942683;28;20814;-80
2021/12/12 09:40:46;;;;;;;3.77;3.47;;;4.60;51.10;;;;;;4921119;29;20482;-79
2021/12/12 09:43:41;;;;;;;3.00;2.80;;;4.60;49.60;;;;;;4939573;28;20459;-80
2021/12/12 09:46:30;;;;;;;3.80;2.60;;;4.60;48.80;;;;;;4941813;28;20466;-80
2021/12/12 09:52:22;;;;;;;2.70;2.50;;;4.60;49.90;;;;;;4944626;28;20485;-81
2021/12/12 09:55:06;;;;;;;3.07;2.87;;;4.70;50.20;;;;;;4946130;28;20482;-80
2021/12/12 09:57:54;;;;;;;2.93;2.60;;;4.70;49.10;;;;;;4945080;28;20959;-81
2021/12/12 10:00:30;;;;;;;4.37;3.10;;;4.90;48.20;;;;;;4935472;28;20454;-80
2021/12/12 10:03:08;;;;;;;3.10;2.80;;;4.90;47.70;;;;;;4942440;28;20791;-80
2021/12/12 10:06:07;;;;;;;3.00;2.80;;;4.90;47.70;;;;;;4943670;28;20450;-81
2021/12/12 10:08:53;;;;;;;3.13;2.93;;;5.00;47.70;;;;;;4955460;28;20462;-81
2021/12/12 10:11:43;;;;;;;3.10;2.90;;;5.10;48.80;;;;;;4942858;28;20458;-80
2021/12/12 10:14:12;;;;;;;2.40;2.20;;;5.10;47.70;;;;;;4943712;28;20483;-81
2021/12/12 10:16:50;;;;;;;2.37;2.20;;;5.20;46.90;;;;;;4945317;28;21146;-81
2021/12/12 10:19:27;;;;;;;3.50;3.20;;;5.20;46.80;;;;;;4943741;28;20462;-81
2021/12/12 10:22:01;;;;;;;5.70;5.20;;;5.20;47.30;;;;;;4945521;28;20546;-80
2021/12/12 10:24:34;;;;;;;2.80;2.60;;;5.20;46.60;;;;;;4945287;28;20540;-81
2021/12/12 10:27:18;;;;;;;3.00;2.30;;;5.20;46.90;;;;;;4945174;28;20491;-80
2021/12/12 10:30:17;;;;;;;2.77;2.00;;;5.20;46.00;;;;;;4937292;28;20912;-81
2021/12/12 10:33:15;;;;;;;2.83;2.63;;;5.10;46.10;;;;;;4945686;28;20462;-84
2021/12/12 10:35:53;;;;;;;3.40;3.10;;;5.20;46.10;;;;;;4931412;28;20453;-80
2021/12/12 10:38:32;;;;;;;2.67;2.47;;;5.20;46.30;;;;;;4947831;28;20517;-81
2021/12/12 10:41:07;;;;;;;2.57;2.37;;;5.20;45.80;;;;;;4939360;28;20442;-81
2021/12/12 10:43:43;;;;;;;2.73;2.50;;;5.20;47.20;;;;;;4940873;28;20458;-81
2021/12/12 10:46:21;;;;;;;2.40;2.20;;;5.30;46.70;;;;;;4947992;28;20442;-80
2021/12/12 10:48:56;;;;;;;2.13;1.93;;;5.40;46.60;;;;;;4943721;28;20488;-82
2021/12/12 10:51:23;;;;;;;4.00;3.60;;;5.50;47.10;;;;;;4945327;28;20815;-82
2021/12/12 10:54:01;;;;;;;3.23;2.50;;;5.50;46.50;;;;;;4949091;28;20501;-82
2021/12/12 10:56:55;;;;;;;3.30;1.83;;;5.50;46.70;;;;;;4941449;28;21034;-82
2021/12/12 10:59:41;;;;;;;4.80;2.40;;;5.40;46.10;;;;;;4944021;28;20474;-81
2021/12/12 11:02:11;;;;;;;1.87;1.77;;;5.50;45.60;;;;;;4942134;28;20458;-80
2021/12/12 11:04:42;;;;;;;3.13;2.80;;;5.50;45.90;;;;;;4945244;28;20977;-84
2021/12/12 11:07:23;;;;;;;5.33;2.33;;;5.60;46.30;;;;;;4945144;28;20442;-87
2021/12/12 11:09:59;;;;;;;5.30;2.40;;;5.70;45.70;;;;;;4940926;28;20439;-84
2021/12/12 11:12:45;;;;;;;2.70;2.23;;;5.70;44.70;;;;;;4944357;28;20474;-84
2021/12/12 11:15:25;;;;;;;3.60;2.83;;;5.80;44.80;;;;;;4961990;28;20497;-84
2021/12/12 11:18:11;;;;;;;2.53;2.30;;;5.80;45.20;;;;;;4962501;28;20453;-85
2021/12/12 11:20:45;;;;;;;2.77;2.57;;;5.80;44.80;;;;;;4963741;28;20541;-84
2021/12/12 11:23:13;;;;;;;3.13;1.73;;;5.80;45.60;;;;;;4963117;28;20465;-84
2021/12/12 11:26:01;;;;;;;2.43;2.23;;;5.80;44.70;;;;;;4962186;28;20487;-84
2021/12/12 11:28:38;;;;;;;4.93;2.07;;;5.80;44.60;;;;;;4963931;28;20485;-86
2021/12/12 11:31:15;;;;;;;2.33;2.10;;;5.90;44.70;;;;;;4953220;28;20786;-84
2021/12/12 11:33:44;;;;;;;2.40;2.20;;;5.90;46.10;;;;;;4962710;28;20528;-83
2021/12/12 11:36:13;;;;;;;3.20;2.30;;;5.90;44.20;;;;;;4965766;28;20438;-90
2021/12/12 11:38:50;;;;;;;2.50;2.30;;;5.90;44.50;;;;;;4970395;28;20457;-85
2021/12/12 11:41:26;;;;;;;2.70;1.83;;;5.80;44.90;;;;;;4962085;28;20592;-84
2021/12/12 11:44:29;;;;;;;3.80;2.70;;;5.80;45.70;;;;;;4960743;28;20468;-81
2021/12/12 11:47:35;;;;;;;4.97;2.73;;;5.90;44.70;;;;;;4961045;28;20997;-81
2021/12/12 11:50:06;;;;;;;3.13;2.50;;;6.00;45.30;;;;;;4959435;28;20453;-81
2021/12/12 11:52:47;;;;;;;3.33;2.23;;;6.00;44.20;;;;;;4961361;28;20537;-81
2021/12/12 11:55:19;;;;;;;3.93;2.00;;;6.00;45.70;;;;;;4954850;28;20464;-81
2021/12/12 11:57:56;;;;;;;4.27;2.20;;;6.00;45.10;;;;;;4962560;28;20954;-81
2021/12/12 12:00:30;;;;;;;3.07;1.93;;;6.10;44.50;;;;;;4959441;28;20454;-82
2021/12/12 12:03:13;;;;;;;2.13;1.60;;;6.10;43.70;;;;;;4954683;28;20470;-81
2021/12/12 12:05:57;;;;;;;2.07;1.87;;;6.10;43.70;;;;;;4941827;28;20846;-81
2021/12/12 12:08:55;;;;;;;2.30;2.10;;;6.10;44.20;;;;;;4940291;28;20506;-81
2021/12/12 12:11:58;;;;;;;3.53;2.13;;;6.10;43.50;;;;;;4938140;28;20873;-81
2021/12/12 12:14:51;;;;;;;4.60;2.30;;;6.20;45.00;;;;;;4939695;28;20502;-81
2021/12/12 12:17:30;;;;;;;1.97;1.80;;;6.20;44.40;;;;;;4944680;28;20493;-82
2021/12/12 12:20:16;;;;;;;2.43;2.23;;;6.10;44.30;;;;;;4918822;29;20538;-81
2021/12/12 12:22:58;;;;;;;9.53;4.13;;;6.20;45.00;;;;;;4921030;28;20460;-82
2021/12/12 12:28:43;;;;;;;2.10;1.87;;;6.30;44.10;;;;;;4927965;28;20598;-81
2021/12/12 12:31:35;;;;;;;3.23;2.30;;;6.30;43.80;;;;;;4923509;28;20451;-81
2021/12/12 12:34:39;;;;;;;2.47;2.27;;;6.20;43.50;;;;;;4916331;28;20460;-82
2021/12/12 12:37:41;;;;;;;2.30;2.10;;;6.20;43.70;;;;;;4937803;28;20801;-82
2021/12/12 12:40:38;;;;;;;2.13;2.03;;;6.30;44.90;;;;;;4940712;28;20559;-80
2021/12/12 12:43:41;;;;;;;3.57;2.03;;;6.30;44.80;;;;;;4939138;28;20469;-82
2021/12/12 12:46:34;;;;;;;2.67;2.47;;;6.30;44.20;;;;;;4930681;28;20463;-82
2021/12/12 12:49:24;;;;;;;3.20;3.00;;;6.40;44.10;;;;;;4938652;28;20455;-87
2021/12/12 12:52:24;;;;;;;1.93;1.83;;;6.30;44.50;;;;;;4939159;28;20459;-87
2021/12/12 12:55:24;;;;;;;2.20;1.97;;;6.40;44.00;;;;;;4939749;28;21254;-86
2021/12/12 12:57:54;;;;;;;4.90;3.00;;;6.40;44.20;;;;;;4938116;28;20473;-85
2021/12/12 13:00:25;;;;;;;3.70;2.33;;;6.50;44.00;;;;;;4936816;28;20505;-86
2021/12/12 13:03:05;;;;;;;5.53;2.97;;;6.50;43.80;;;;;;4945517;28;21261;-86
2021/12/12 13:06:02;;;;;;;5.10;2.17;;;6.50;43.80;;;;;;4938704;28;20840;-86
2021/12/12 13:09:29;;;;;;;3.47;2.10;;;6.50;43.60;;;;;;4938085;28;20462;-86
2021/12/12 13:12:16;;;;;;;2.10;1.70;;;6.50;43.60;;;;;;4939963;28;21326;-85
2021/12/12 13:14:47;;;;;;;3.10;2.20;;;6.50;42.60;;;;;;4938540;28;20548;-85
2021/12/12 13:17:27;;;;;;;1.83;1.73;;;6.50;42.70;;;;;;4937408;28;20827;-85
2021/12/12 13:20:11;;;;;;;2.63;2.43;;;6.60;42.10;;;;;;4938934;28;20464;-86
2021/12/12 13:22:47;;;;;;;2.30;2.10;;;6.60;41.40;;;;;;4940135;28;20963;-87
2021/12/12 13:25:21;;;;;;;2.67;2.47;;;6.50;42.10;;;;;;4954275;28;20446;-86
2021/12/12 13:28:18;;;;;;;3.83;2.17;;;6.50;42.30;;;;;;4940637;28;20454;-86
2021/12/12 13:31:16;;;;;;;2.80;2.30;;;6.50;42.80;;;;;;4939741;28;20454;-86
2021/12/12 13:34:01;;;;;;;3.80;2.63;;;6.50;42.30;;;;;;4920690;28;20565;-86
2021/12/12 13:36:37;;;;;;;3.53;2.10;;;6.60;42.00;;;;;;4902166;29;20524;-86
2021/12/12 13:39:23;;;;;;;3.73;2.40;;;6.60;42.90;;;;;;4900370;29;20535;-87
2021/12/12 13:42:12;;;;;;;2.00;1.60;;;6.50;42.90;;;;;;4901365;29;20445;-86
2021/12/12 13:44:58;;;;;;;2.57;2.37;;;6.50;42.60;;;;;;4934372;28;20452;-86
2021/12/12 13:47:56;;;;;;;4.07;2.70;;;6.40;41.80;;;;;;4936505;28;20459;-86
2021/12/12 13:50:39;;;;;;;3.40;2.30;;;6.40;42.20;;;;;;4938157;28;20454;-87
2021/12/12 13:53:31;;;;;;;2.40;2.10;;;6.30;42.50;;;;;;4940028;28;20450;-86
2021/12/12 13:56:22;;;;;;;2.70;2.50;;;6.40;43.20;;;;;;4918125;28;20427;-86
2021/12/12 13:59:10;;;;;;;2.00;1.80;;;6.40;42.80;;;;;;4933498;28;20448;-86